createdAt,value
2023-04-23T00:00:08.508Z,21.15
2023-04-23T00:02:48.217Z,21.11
2023-04-23T00:05:19.881Z,20.82
2023-04-23T00:07:54.516Z,21.02
2023-04-23T00:10:28.001Z,21.01
2023-04-23T00:12:58.007Z,20.99
2023-04-23T00:15:27.201Z,21.04
2023-04-23T00:17:54.745Z,21.04
2023-04-23T00:20:23.045Z,21.02
2023-04-23T00:22:52.606Z,20.95
2023-04-23T00:25:19.887Z,20.89
2023-04-23T00:27:48.262Z,21.03
2023-04-23T00:30:16.962Z,20.89
2023-04-23T00:32:44.872Z,20.93
2023-04-23T00:35:12.962Z,20.89
2023-04-23T00:37:40.356Z,20.83
2023-04-23T00:40:08.219Z,20.94
2023-04-23T00:42:36.475Z,20.93
2023-04-23T00:45:03.689Z,20.93
2023-04-23T00:47:31.548Z,20.58
2023-04-23T00:49:59.837Z,20.48
2023-04-23T00:52:28.423Z,20.75
2023-04-23T00:54:56.583Z,20.54
2023-04-23T00:57:23.635Z,20.57
2023-04-23T00:59:51.149Z,20.33
2023-04-23T01:02:18.879Z,20.58
2023-04-23T01:04:51.384Z,20.68
2023-04-23T01:07:18.909Z,20.66
2023-04-23T01:09:46.534Z,20.40
2023-04-23T01:12:18.045Z,20.48
2023-04-23T01:14:46.193Z,20.46
2023-04-23T01:17:13.846Z,20.45
2023-04-23T01:19:41.263Z,20.43
2023-04-23T01:22:15.272Z,20.34
2023-04-23T01:24:43.241Z,20.31
2023-04-23T01:27:11.369Z,20.32
2023-04-23T01:29:42.500Z,20.14
2023-04-23T01:32:10.135Z,20.15
2023-04-23T01:34:39.884Z,20.16
2023-04-23T01:37:07.990Z,20.08
2023-04-23T01:39:36.318Z,20.05
2023-04-23T01:42:04.317Z,20.26
2023-04-23T01:44:31.343Z,20.31
2023-04-23T01:46:58.820Z,20.25
2023-04-23T01:49:25.861Z,20.43
2023-04-23T01:51:52.997Z,20.37
2023-04-23T01:54:20.047Z,20.34
2023-04-23T01:56:50.260Z,20.40
2023-04-23T01:59:17.479Z,20.46
2023-04-23T02:01:48.194Z,20.49
2023-04-23T02:04:16.650Z,20.57
2023-04-23T02:06:48.828Z,20.55
2023-04-23T02:09:15.986Z,20.49
2023-04-23T02:11:43.259Z,20.57
2023-04-23T02:14:11.120Z,20.62
2023-04-23T02:16:38.338Z,20.71
2023-04-23T02:19:05.687Z,20.66
2023-04-23T02:21:35.027Z,20.59
2023-04-23T02:24:02.219Z,20.73
2023-04-23T02:26:30.308Z,20.70
2023-04-23T02:28:57.436Z,20.74
2023-04-23T02:31:24.563Z,20.80
2023-04-23T02:33:52.142Z,20.75
2023-04-23T02:36:19.250Z,20.71
2023-04-23T02:38:48.704Z,20.80
2023-04-23T02:41:15.836Z,20.78
2023-04-23T02:43:43.009Z,20.74
2023-04-23T02:46:10.289Z,20.76
2023-04-23T02:48:42.029Z,20.65
2023-04-23T02:51:12.456Z,20.82
2023-04-23T02:53:39.545Z,20.80
2023-04-23T02:56:07.492Z,20.87
2023-04-23T02:58:35.686Z,20.85
2023-04-23T03:01:03.636Z,20.88
2023-04-23T03:03:32.676Z,20.92
2023-04-23T03:06:03.004Z,20.95
2023-04-23T03:08:30.047Z,20.91
2023-04-23T03:10:57.196Z,20.96
2023-04-23T03:13:26.680Z,20.91
2023-04-23T03:15:57.115Z,20.99
2023-04-23T03:18:29.027Z,20.91
2023-04-23T03:20:57.070Z,20.83
2023-04-23T03:23:24.503Z,20.76
2023-04-23T03:25:51.798Z,20.85
2023-04-23T03:28:18.906Z,20.81
2023-04-23T03:30:46.309Z,20.91
2023-04-23T03:33:13.534Z,20.84
2023-04-23T03:35:40.636Z,20.82
2023-04-23T03:38:12.624Z,20.81
2023-04-23T03:40:40.997Z,20.85
2023-04-23T03:43:09.809Z,20.83
2023-04-23T03:46:09.344Z,20.77
2023-04-23T03:48:40.415Z,20.85
2023-04-23T03:51:12.501Z,20.88
2023-04-23T03:53:46.139Z,20.86
2023-04-23T03:56:34.064Z,20.91
2023-04-23T03:59:15.335Z,20.91
2023-04-23T04:01:45.359Z,20.83
2023-04-23T04:04:13.018Z,20.86
2023-04-23T04:06:40.926Z,20.92
2023-04-23T04:09:09.332Z,20.84
2023-04-23T04:11:37.045Z,20.93
2023-04-23T04:14:04.177Z,20.96
2023-04-23T04:16:31.278Z,21.01
2023-04-23T04:18:58.823Z,20.98
2023-04-23T04:21:26.113Z,20.93
2023-04-23T04:23:53.820Z,20.94
2023-04-23T04:26:20.869Z,20.93
2023-04-23T04:28:47.893Z,20.93
2023-04-23T04:31:16.404Z,20.86
2023-04-23T04:33:43.620Z,20.93
2023-04-23T04:36:10.682Z,20.89
2023-04-23T04:38:38.171Z,20.91
2023-04-23T04:41:05.381Z,20.94
2023-04-23T04:43:33.134Z,20.85
2023-04-23T04:46:01.330Z,20.91
2023-04-23T04:48:28.492Z,20.87
2023-04-23T04:50:55.683Z,20.89
2023-04-23T04:53:22.878Z,20.89
2023-04-23T04:55:50.294Z,20.77
2023-04-23T04:58:17.592Z,20.91
2023-04-23T05:00:44.754Z,20.83
2023-04-23T05:03:14.320Z,20.83
2023-04-23T05:05:41.698Z,20.83
2023-04-23T05:08:09.557Z,20.80
2023-04-23T05:10:36.938Z,20.83
2023-04-23T05:13:03.966Z,20.82
2023-04-23T05:15:31.087Z,20.91
2023-04-23T05:17:58.203Z,20.91
2023-04-23T05:20:25.509Z,20.86
2023-04-23T05:22:54.723Z,20.92
2023-04-23T05:25:21.917Z,20.90
2023-04-23T05:27:49.032Z,20.72
2023-04-23T05:30:16.239Z,20.84
2023-04-23T05:32:43.632Z,20.90
2023-04-23T05:35:11.992Z,20.92
2023-04-23T05:37:39.152Z,20.87
2023-04-23T05:40:07.388Z,20.88
2023-04-23T05:42:37.574Z,20.89
2023-04-23T05:45:06.679Z,20.92
2023-04-23T05:47:35.626Z,20.92
2023-04-23T05:50:02.856Z,20.93
2023-04-23T05:52:33.611Z,20.93
2023-04-23T05:55:00.844Z,20.86
2023-04-23T05:57:28.027Z,20.94
2023-04-23T05:59:55.266Z,21.03
2023-04-23T06:02:24.542Z,21.03
2023-04-23T06:04:52.855Z,21.06
2023-04-23T06:07:20.819Z,21.05
2023-04-23T06:09:48.140Z,21.04
2023-04-23T06:12:15.244Z,21.09
2023-04-23T06:14:42.522Z,21.07
2023-04-23T06:17:09.823Z,21.15
2023-04-23T06:19:37.068Z,21.20
2023-04-23T06:22:04.146Z,21.21
2023-04-23T06:24:32.116Z,21.24
2023-04-23T06:26:59.246Z,21.27
2023-04-23T06:29:28.111Z,21.33
2023-04-23T06:32:14.230Z,21.31
2023-04-23T06:34:53.258Z,21.38
2023-04-23T06:37:29.674Z,21.36
2023-04-23T06:39:58.331Z,21.29
2023-04-23T06:42:25.917Z,21.39
2023-04-23T06:45:12.236Z,21.41
2023-04-23T06:47:39.966Z,21.55
2023-04-23T06:50:08.556Z,21.63
2023-04-23T06:52:36.340Z,21.75
2023-04-23T06:55:03.738Z,21.70
2023-04-23T06:57:30.966Z,21.64
2023-04-23T06:59:58.107Z,21.75
2023-04-23T07:02:30.040Z,21.74
2023-04-23T07:04:57.446Z,21.79
2023-04-23T07:07:26.250Z,21.83
2023-04-23T07:09:53.398Z,21.96
2023-04-23T07:12:20.691Z,22.03
2023-04-23T07:14:47.878Z,22.08
2023-04-23T07:17:14.926Z,22.06
2023-04-23T07:19:42.498Z,22.07
2023-04-23T07:22:09.963Z,22.01
2023-04-23T07:24:40.735Z,22.13
2023-04-23T07:27:11.311Z,22.19
2023-04-23T07:29:38.556Z,22.22
2023-04-23T07:32:05.752Z,22.02
2023-04-23T07:34:33.235Z,21.80
2023-04-23T07:37:00.836Z,21.50
2023-04-23T07:39:27.984Z,21.01
2023-04-23T07:41:55.453Z,21.24
2023-04-23T07:44:22.678Z,20.90
2023-04-23T07:46:53.491Z,21.63
2023-04-23T07:49:20.722Z,21.85
2023-04-23T07:51:49.226Z,21.98
2023-04-23T07:54:16.518Z,21.60
2023-04-23T07:56:43.769Z,21.93
2023-04-23T07:59:11.046Z,21.64
2023-04-23T08:01:42.257Z,21.39
2023-04-23T08:04:09.706Z,21.80
2023-04-23T08:06:37.016Z,21.87
2023-04-23T08:09:07.091Z,21.43
2023-04-23T08:11:34.227Z,21.29
2023-04-23T08:14:02.155Z,21.70
2023-04-23T08:16:30.787Z,21.66
2023-04-23T08:19:05.479Z,21.50
2023-04-23T08:21:34.192Z,21.14
2023-04-23T08:24:03.222Z,21.36
2023-04-23T08:26:31.698Z,20.94
2023-04-23T08:29:00.992Z,20.59
2023-04-23T08:31:28.848Z,21.71
2023-04-23T08:33:56.268Z,21.92
2023-04-23T08:36:23.729Z,21.75
2023-04-23T08:38:50.857Z,22.43
2023-04-23T08:41:19.493Z,21.82
2023-04-23T08:44:18.617Z,22.77
2023-04-23T08:46:46.206Z,23.27
2023-04-23T08:49:16.784Z,23.29
2023-04-23T08:51:52.656Z,23.14
2023-04-23T08:54:27.217Z,22.88
2023-04-23T08:56:58.670Z,22.94
2023-04-23T08:59:34.676Z,22.78
2023-04-23T09:02:08.394Z,22.52
2023-04-23T09:04:39.014Z,22.80
2023-04-23T09:07:11.423Z,22.55
2023-04-23T09:09:40.970Z,22.71
2023-04-23T09:12:09.602Z,22.91
2023-04-23T09:14:40.371Z,22.95
2023-04-23T09:17:07.875Z,22.64
2023-04-23T09:19:39.042Z,22.42
2023-04-23T09:22:07.789Z,22.69
2023-04-23T09:24:35.066Z,22.85
2023-04-23T09:27:03.036Z,22.81
2023-04-23T09:29:31.312Z,23.01
2023-04-23T09:32:07.843Z,23.11
2023-04-23T09:34:37.795Z,23.77
2023-04-23T09:37:08.429Z,23.59
2023-04-23T09:39:40.397Z,23.68
2023-04-23T09:42:11.106Z,23.71
2023-04-23T09:44:38.314Z,23.66
2023-04-23T09:47:15.065Z,23.41
2023-04-23T09:49:49.422Z,23.56
2023-04-23T09:52:17.215Z,23.64
2023-04-23T09:54:46.693Z,22.40
2023-04-23T09:57:14.388Z,22.87
2023-04-23T09:59:48.716Z,23.02
2023-04-23T10:02:19.318Z,22.94
2023-04-23T10:04:58.332Z,23.45
2023-04-23T10:07:32.670Z,23.93
2023-04-23T10:10:00.051Z,24.13
2023-04-23T10:12:44.590Z,24.74
2023-04-23T10:15:15.699Z,24.90
2023-04-23T10:17:43.265Z,24.67
2023-04-23T10:20:12.772Z,24.71
2023-04-23T10:22:44.524Z,24.17
2023-04-23T10:25:12.775Z,23.90
2023-04-23T10:27:53.254Z,23.82
2023-04-23T10:30:23.025Z,24.82
2023-04-23T10:32:53.926Z,25.37
2023-04-23T10:35:21.030Z,25.12
2023-04-23T10:37:51.406Z,24.44
2023-04-23T10:40:32.627Z,24.40
2023-04-23T10:43:00.512Z,25.02
2023-04-23T10:45:39.978Z,25.59
2023-04-23T10:48:08.833Z,24.84
2023-04-23T10:50:37.864Z,25.66
2023-04-23T10:53:05.929Z,25.74
2023-04-23T10:55:33.327Z,24.33
2023-04-23T10:58:08.603Z,25.44
2023-04-23T11:00:46.872Z,25.67
2023-04-23T11:03:30.917Z,25.53
2023-04-23T11:06:05.694Z,25.36
2023-04-23T11:08:35.495Z,25.15
2023-04-23T11:11:07.102Z,25.59
2023-04-23T11:13:35.049Z,25.49
2023-04-23T11:16:38.760Z,25.88
2023-04-23T11:19:12.987Z,25.37
2023-04-23T11:21:55.110Z,25.93
2023-04-23T11:24:27.946Z,26.06
2023-04-23T11:26:55.614Z,25.57
2023-04-23T11:29:24.340Z,25.46
2023-04-23T11:32:01.741Z,25.73
2023-04-23T11:34:31.334Z,25.39
2023-04-23T11:36:59.741Z,25.10
2023-04-23T11:39:28.640Z,25.48
2023-04-23T11:41:57.889Z,25.18
2023-04-23T11:44:25.610Z,25.29
2023-04-23T11:46:52.867Z,24.72
2023-04-23T11:49:25.191Z,23.86
2023-04-23T11:51:52.713Z,25.06
2023-04-23T11:54:25.196Z,25.23
2023-04-23T11:56:53.963Z,25.01
2023-04-23T11:59:21.414Z,24.61
2023-04-23T12:01:50.964Z,25.08
2023-04-23T12:04:29.833Z,24.74
2023-04-23T12:06:58.605Z,24.58
2023-04-23T12:09:27.814Z,24.39
2023-04-23T12:11:56.045Z,23.78
2023-04-23T12:14:31.319Z,24.78
2023-04-23T12:17:09.030Z,24.12
2023-04-23T12:19:36.772Z,23.90
2023-04-23T12:22:04.569Z,24.27
2023-04-23T12:24:48.714Z,24.72
2023-04-23T12:27:20.469Z,24.67
2023-04-23T12:30:04.284Z,23.43
2023-04-23T12:32:34.512Z,24.79
2023-04-23T12:35:01.828Z,24.40
2023-04-23T12:37:31.221Z,24.18
2023-04-23T12:40:01.684Z,23.74
2023-04-23T12:42:28.840Z,24.39
2023-04-23T12:44:56.687Z,24.11
2023-04-23T12:47:24.089Z,24.15
2023-04-23T12:49:53.973Z,24.69
2023-04-23T12:52:21.496Z,24.33
2023-04-23T12:54:52.347Z,25.21
2023-04-23T12:57:25.844Z,25.22
2023-04-23T12:59:55.143Z,25.37
2023-04-23T13:02:23.375Z,25.20
2023-04-23T13:04:50.948Z,25.49
2023-04-23T13:07:22.008Z,25.08
2023-04-23T13:09:52.613Z,24.59
2023-04-23T13:12:20.907Z,24.95
2023-04-23T13:14:50.288Z,25.04
2023-04-23T13:17:18.335Z,25.17
2023-04-23T13:19:45.509Z,26.13
2023-04-23T13:22:12.659Z,27.02
2023-04-23T13:24:40.150Z,26.59
2023-04-23T13:27:11.485Z,26.73
2023-04-23T13:29:40.680Z,26.70
2023-04-23T13:32:10.586Z,26.06
2023-04-23T13:34:37.842Z,25.86
2023-04-23T13:37:06.636Z,25.40
2023-04-23T13:39:39.896Z,25.40
2023-04-23T13:42:09.881Z,26.76
2023-04-23T13:44:37.430Z,27.02
2023-04-23T13:47:05.373Z,25.69
2023-04-23T13:49:33.525Z,24.83
2023-04-23T13:52:09.191Z,24.39
2023-04-23T13:54:36.641Z,24.23
2023-04-23T13:57:03.931Z,24.44
2023-04-23T13:59:31.253Z,24.32
2023-04-23T14:01:58.620Z,24.18
2023-04-23T14:04:28.506Z,24.32
2023-04-23T14:06:58.034Z,25.24
2023-04-23T14:09:25.531Z,25.63
2023-04-23T14:11:52.793Z,24.82
2023-04-23T14:14:20.061Z,24.87
2023-04-23T14:16:49.033Z,24.42
2023-04-23T14:19:16.083Z,25.33
2023-04-23T14:21:43.534Z,25.82
2023-04-23T14:24:44.757Z,25.25
2023-04-23T14:27:11.972Z,25.15
2023-04-23T14:29:47.403Z,24.60
2023-04-23T14:32:14.491Z,24.13
2023-04-23T14:34:41.588Z,24.19
2023-04-23T14:37:08.801Z,23.79
2023-04-23T14:39:35.865Z,24.02
2023-04-23T14:42:03.974Z,24.29
2023-04-23T14:44:31.197Z,24.65
2023-04-23T14:47:05.408Z,23.79
2023-04-23T14:49:32.500Z,24.38
2023-04-23T14:52:00.030Z,23.87
2023-04-23T14:54:27.264Z,24.22
2023-04-23T14:56:54.909Z,23.91
2023-04-23T14:59:22.403Z,24.48
2023-04-23T15:01:49.684Z,24.86
2023-04-23T15:04:17.295Z,24.93
2023-04-23T15:06:44.700Z,24.59
2023-04-23T15:09:12.726Z,25.06
2023-04-23T15:11:42.368Z,24.34
2023-04-23T15:14:21.290Z,24.88
2023-04-23T15:16:51.979Z,24.41
2023-04-23T15:19:21.634Z,23.98
2023-04-23T15:21:49.821Z,23.70
2023-04-23T15:24:17.419Z,24.07
2023-04-23T15:26:46.120Z,24.20
2023-04-23T15:29:13.946Z,24.26
2023-04-23T15:31:41.883Z,24.49
2023-04-23T15:34:09.817Z,23.75
2023-04-23T15:36:40.122Z,23.91
2023-04-23T15:39:09.412Z,23.54
2023-04-23T15:41:40.266Z,23.43
2023-04-23T15:44:12.101Z,23.31
2023-04-23T15:46:39.712Z,23.99
2023-04-23T15:49:06.866Z,23.49
2023-04-23T15:51:34.009Z,24.16
2023-04-23T15:54:02.386Z,24.03
2023-04-23T15:56:29.575Z,24.47
2023-04-23T15:58:57.323Z,24.85
2023-04-23T16:01:27.173Z,24.57
2023-04-23T16:04:09.721Z,23.99
2023-04-23T16:06:37.807Z,24.01
2023-04-23T16:09:08.460Z,24.49
2023-04-23T16:11:37.041Z,24.75
2023-04-23T16:14:06.223Z,24.23
2023-04-23T16:16:33.456Z,24.88
2023-04-23T16:19:00.660Z,24.41
2023-04-23T16:21:28.328Z,24.55
2023-04-23T16:23:55.808Z,24.30
2023-04-23T16:26:22.998Z,24.62
2023-04-23T16:28:56.353Z,24.25
2023-04-23T16:31:28.081Z,24.34
2023-04-23T16:33:55.829Z,24.89
2023-04-23T16:36:26.527Z,24.33
2023-04-23T16:38:55.152Z,24.17
2023-04-23T16:41:22.303Z,24.34
2023-04-23T16:43:49.568Z,24.59
2023-04-23T16:46:16.786Z,23.87
2023-04-23T16:48:44.963Z,24.41
2023-04-23T16:51:12.055Z,24.46
2023-04-23T16:53:41.661Z,24.39
2023-04-23T16:56:08.871Z,24.20
2023-04-23T16:58:36.246Z,24.48
2023-04-23T17:01:03.420Z,24.57
2023-04-23T17:03:30.754Z,24.70
2023-04-23T17:06:15.141Z,24.40
2023-04-23T17:08:42.312Z,23.99
2023-04-23T17:11:09.440Z,24.23
2023-04-23T17:13:36.622Z,24.26
2023-04-23T17:16:03.842Z,24.36
2023-04-23T17:18:31.065Z,24.16
2023-04-23T17:20:58.315Z,24.40
2023-04-23T17:23:28.740Z,24.73
2023-04-23T17:25:56.754Z,24.50
2023-04-23T17:28:24.084Z,24.57
2023-04-23T17:30:53.849Z,24.74
2023-04-23T17:33:22.173Z,24.63
2023-04-23T17:35:56.643Z,24.33
2023-04-23T17:38:24.890Z,24.41
2023-04-23T17:40:53.637Z,24.26
2023-04-23T17:43:21.611Z,24.40
2023-04-23T17:45:49.045Z,24.44
2023-04-23T17:48:16.604Z,24.78
2023-04-23T17:50:44.230Z,24.71
2023-04-23T17:53:13.646Z,24.56
2023-04-23T17:55:41.727Z,24.79
2023-04-23T17:58:10.724Z,24.54
2023-04-23T18:00:40.404Z,24.58
2023-04-23T18:03:09.060Z,24.65
2023-04-23T18:05:40.236Z,24.55
2023-04-23T18:08:08.643Z,24.60
2023-04-23T18:10:36.022Z,24.28
2023-04-23T18:13:04.056Z,24.71
2023-04-23T18:15:34.037Z,24.19
2023-04-23T18:18:01.736Z,24.12
2023-04-23T18:20:32.014Z,24.62
2023-04-23T18:22:59.578Z,25.02
2023-04-23T18:25:27.718Z,25.18
2023-04-23T18:27:55.682Z,25.27
2023-04-23T18:30:25.383Z,25.27
2023-04-23T18:33:00.981Z,24.93
2023-04-23T18:35:28.317Z,24.91
2023-04-23T18:38:04.823Z,24.78
2023-04-23T18:40:32.538Z,24.63
2023-04-23T18:43:02.106Z,24.49
2023-04-23T18:45:29.754Z,24.41
2023-04-23T18:48:07.484Z,24.38
2023-04-23T18:50:49.145Z,24.21
2023-04-23T18:53:22.284Z,24.19
2023-04-23T18:55:49.583Z,23.95
2023-04-23T18:58:21.665Z,24.00
2023-04-23T19:00:49.635Z,24.03
2023-04-23T19:03:26.059Z,23.76
2023-04-23T19:05:56.681Z,23.63
2023-04-23T19:08:30.549Z,23.63
2023-04-23T19:10:57.869Z,23.41
2023-04-23T19:13:25.429Z,23.27
2023-04-23T19:15:52.723Z,23.39
2023-04-23T19:18:20.269Z,23.31
2023-04-23T19:20:47.385Z,23.35
2023-04-23T19:23:14.728Z,23.26
2023-04-23T19:25:42.003Z,23.04
2023-04-23T19:28:09.844Z,22.98
2023-04-23T19:30:38.430Z,22.90
2023-04-23T19:33:05.895Z,22.57
2023-04-23T19:35:38.617Z,22.75
2023-04-23T19:38:07.630Z,22.72
2023-04-23T19:40:35.355Z,22.60
2023-04-23T19:43:03.966Z,22.61
2023-04-23T19:45:35.005Z,22.57
2023-04-23T19:48:05.058Z,22.59
2023-04-23T19:50:39.659Z,22.53
2023-04-23T19:53:06.924Z,21.92
2023-04-23T19:55:34.367Z,22.05
2023-04-23T19:58:01.761Z,21.51
2023-04-23T20:00:30.969Z,21.94
2023-04-23T20:02:59.534Z,21.89
2023-04-23T20:05:28.066Z,21.75
2023-04-23T20:07:55.106Z,21.84
2023-04-23T20:10:23.066Z,21.70
2023-04-23T20:12:54.361Z,21.83
2023-04-23T20:15:24.499Z,21.98
2023-04-23T20:17:52.731Z,22.09
2023-04-23T20:20:24.687Z,22.08
2023-04-23T20:22:51.729Z,22.07
2023-04-23T20:25:25.544Z,22.11
2023-04-23T20:27:55.794Z,22.01
2023-04-23T20:30:22.820Z,21.87
2023-04-23T20:32:52.224Z,21.83
2023-04-23T20:35:19.364Z,21.92
2023-04-23T20:37:47.130Z,21.97
2023-04-23T20:40:15.477Z,21.86
2023-04-23T20:42:42.545Z,21.87
2023-04-23T20:45:14.548Z,21.67
2023-04-23T20:47:41.887Z,21.68
2023-04-23T20:50:11.123Z,21.68
2023-04-23T20:52:38.830Z,21.68
2023-04-23T20:55:09.033Z,21.66
2023-04-23T20:57:40.003Z,21.55
2023-04-23T21:00:13.117Z,21.55
2023-04-23T21:02:43.169Z,21.45
2023-04-23T21:05:12.479Z,21.59
2023-04-23T21:07:44.500Z,21.24
2023-04-23T21:10:12.150Z,21.38
2023-04-23T21:12:42.982Z,21.24
2023-04-23T21:15:16.473Z,21.18
2023-04-23T21:17:43.949Z,21.28
2023-04-23T21:20:11.214Z,21.23
2023-04-23T21:22:38.448Z,21.18
2023-04-23T21:25:06.156Z,21.17
2023-04-23T21:27:34.261Z,21.09
2023-04-23T21:30:09.105Z,21.37
2023-04-23T21:32:41.785Z,21.22
2023-04-23T21:35:11.445Z,21.13
2023-04-23T21:37:39.179Z,21.18
2023-04-23T21:40:07.784Z,21.10
2023-04-23T21:42:36.342Z,21.18
2023-04-23T21:45:03.887Z,21.30
2023-04-23T21:47:31.459Z,21.23
2023-04-23T21:50:00.557Z,21.37
2023-04-23T21:52:30.469Z,21.28
2023-04-23T21:54:58.931Z,21.30
2023-04-23T21:57:26.408Z,21.23
2023-04-23T22:00:01.189Z,21.33
2023-04-23T22:02:37.812Z,21.04
2023-04-23T22:05:07.361Z,21.20
2023-04-23T22:07:39.884Z,21.16
2023-04-23T22:10:12.969Z,21.15
2023-04-23T22:12:46.322Z,21.20
2023-04-23T22:15:17.484Z,21.12
2023-04-23T22:17:46.560Z,21.23
2023-04-23T22:20:14.921Z,21.20
2023-04-23T22:22:43.038Z,21.07
2023-04-23T22:25:12.857Z,20.97
2023-04-23T22:27:41.772Z,20.89
2023-04-23T22:30:10.402Z,20.79
2023-04-23T22:32:38.480Z,20.89
2023-04-23T22:35:06.972Z,20.91
2023-04-23T22:37:34.748Z,20.86
2023-04-23T22:40:03.810Z,20.77
2023-04-23T22:42:31.541Z,20.86
2023-04-23T22:44:59.271Z,20.95
2023-04-23T22:47:26.471Z,20.83
2023-04-23T22:49:53.542Z,20.79
2023-04-23T22:52:21.000Z,20.89
2023-04-23T22:54:48.673Z,20.70
2023-04-23T22:57:15.886Z,20.82
2023-04-23T22:59:43.649Z,20.85
2023-04-23T23:02:11.129Z,20.81
2023-04-23T23:04:40.172Z,20.70
2023-04-23T23:07:10.154Z,20.78
2023-04-23T23:09:39.018Z,20.69
2023-04-23T23:12:10.560Z,20.79
2023-04-23T23:14:37.989Z,20.71
2023-04-23T23:17:06.355Z,20.77
2023-04-23T23:19:33.533Z,20.67
2023-04-23T23:22:02.500Z,20.70
2023-04-23T23:24:30.218Z,20.80
2023-04-23T23:26:57.528Z,20.80
2023-04-23T23:29:24.828Z,20.68
2023-04-23T23:31:52.088Z,20.56
2023-04-23T23:34:20.592Z,20.00
2023-04-23T23:36:52.675Z,20.19
2023-04-23T23:39:20.685Z,20.45
2023-04-23T23:41:48.616Z,20.52
2023-04-23T23:44:16.767Z,20.64
2023-04-23T23:46:43.917Z,20.58
2023-04-23T23:49:11.704Z,20.51
2023-04-23T23:51:38.826Z,20.67
2023-04-23T23:54:06.639Z,20.54
2023-04-23T23:56:33.795Z,20.49
